createdAt,value
2023-02-28T00:01:53.890Z,1.96
2023-02-28T00:04:20.245Z,1.98
2023-02-28T00:06:46.631Z,2.00
2023-02-28T00:09:12.992Z,2.01
2023-02-28T00:11:39.477Z,2.13
2023-02-28T00:14:05.866Z,2.10
2023-02-28T00:16:32.322Z,2.10
2023-02-28T00:18:58.740Z,2.16
2023-02-28T00:21:25.107Z,2.23
2023-02-28T00:23:51.529Z,2.18
2023-02-28T00:26:18.696Z,2.18
2023-02-28T00:28:46.427Z,2.25
2023-02-28T00:31:12.876Z,2.22
2023-02-28T00:33:39.275Z,2.20
2023-02-28T00:36:05.675Z,2.28
2023-02-28T00:38:32.030Z,2.15
2023-02-28T00:40:58.443Z,2.19
2023-02-28T00:43:24.838Z,2.20
2023-02-28T00:45:51.311Z,2.23
2023-02-28T00:48:17.777Z,2.24
2023-02-28T00:50:44.138Z,2.25
2023-02-28T00:53:10.515Z,2.33
2023-02-28T00:55:36.910Z,2.37
2023-02-28T00:58:03.328Z,2.24
2023-02-28T01:00:29.728Z,2.39
2023-02-28T01:02:56.106Z,2.33
2023-02-28T01:05:22.495Z,2.37
2023-02-28T01:07:48.866Z,2.43
2023-02-28T01:10:15.248Z,2.44
2023-02-28T01:12:41.616Z,2.49
2023-02-28T01:15:07.970Z,2.39
2023-02-28T01:17:34.345Z,2.42
2023-02-28T01:20:00.717Z,2.35
2023-02-28T01:22:27.126Z,2.31
2023-02-28T01:24:53.532Z,2.33
2023-02-28T01:27:19.936Z,2.23
2023-02-28T01:29:46.306Z,2.09
2023-02-28T01:32:12.736Z,2.14
2023-02-28T01:34:39.130Z,2.12
2023-02-28T01:37:05.494Z,2.06
2023-02-28T01:39:31.887Z,2.05
2023-02-28T01:41:58.287Z,2.00
2023-02-28T01:44:24.700Z,2.08
2023-02-28T01:46:51.095Z,2.02
2023-02-28T01:49:17.477Z,1.80
2023-02-28T01:51:43.899Z,1.87
2023-02-28T01:54:10.302Z,1.83
2023-02-28T01:56:36.680Z,1.97
2023-02-28T01:59:03.113Z,2.14
2023-02-28T02:01:29.826Z,2.16
2023-02-28T02:03:56.532Z,2.16
2023-02-28T02:06:22.929Z,2.11
2023-02-28T02:08:49.309Z,2.07
2023-02-28T02:11:15.686Z,2.15
2023-02-28T02:13:42.057Z,2.03
2023-02-28T02:16:08.474Z,2.08
2023-02-28T02:18:34.893Z,2.15
2023-02-28T02:21:01.258Z,2.32
2023-02-28T02:23:27.642Z,2.20
2023-02-28T02:25:54.054Z,2.23
2023-02-28T02:28:20.433Z,2.17
2023-02-28T02:30:46.844Z,2.13
2023-02-28T02:33:13.264Z,2.19
2023-02-28T02:35:39.669Z,2.31
2023-02-28T02:38:06.077Z,2.29
2023-02-28T02:40:32.468Z,2.41
2023-02-28T02:42:58.828Z,2.37
2023-02-28T02:45:25.205Z,2.22
2023-02-28T02:47:51.595Z,2.38
2023-02-28T02:50:17.960Z,2.20
2023-02-28T02:52:44.372Z,2.36
2023-02-28T02:55:10.765Z,2.31
2023-02-28T02:57:37.147Z,2.31
2023-02-28T03:00:03.523Z,2.34
2023-02-28T03:02:29.905Z,2.33
2023-02-28T03:04:56.266Z,2.35
2023-02-28T03:07:22.632Z,2.46
2023-02-28T03:09:49.027Z,2.51
2023-02-28T03:12:15.396Z,2.41
2023-02-28T03:14:41.745Z,2.41
2023-02-28T03:17:08.157Z,2.58
2023-02-28T03:19:34.543Z,2.56
2023-02-28T03:22:00.928Z,2.51
2023-02-28T03:24:27.295Z,2.51
2023-02-28T03:26:53.681Z,2.40
2023-02-28T03:29:20.056Z,2.56
2023-02-28T03:31:46.461Z,2.69
2023-02-28T03:34:12.919Z,2.54
2023-02-28T03:36:39.278Z,2.46
2023-02-28T03:39:05.655Z,2.25
2023-02-28T03:41:32.327Z,2.47
2023-02-28T03:43:58.777Z,2.46
2023-02-28T03:46:25.156Z,2.52
2023-02-28T03:48:51.534Z,2.40
2023-02-28T03:51:17.886Z,2.30
2023-02-28T03:53:44.281Z,2.22
2023-02-28T03:56:10.683Z,2.27
2023-02-28T03:58:37.073Z,2.17
2023-02-28T04:01:03.450Z,2.20
2023-02-28T04:03:29.805Z,2.23
2023-02-28T04:05:56.224Z,2.29
2023-02-28T04:08:22.649Z,2.19
2023-02-28T04:10:49.025Z,2.10
2023-02-28T04:13:15.422Z,2.16
2023-02-28T04:15:41.856Z,2.25
2023-02-28T04:18:08.240Z,2.21
2023-02-28T04:20:34.618Z,2.38
2023-02-28T04:23:01.021Z,2.40
2023-02-28T04:25:27.389Z,2.34
2023-02-28T04:27:53.785Z,2.55
2023-02-28T04:30:20.146Z,2.43
2023-02-28T04:32:46.507Z,2.28
2023-02-28T04:35:12.872Z,2.28
2023-02-28T04:37:39.257Z,2.35
2023-02-28T04:40:05.628Z,2.49
2023-02-28T04:42:32.040Z,2.33
2023-02-28T04:44:58.456Z,2.23
2023-02-28T04:47:24.823Z,2.14
2023-02-28T04:49:51.210Z,2.15
2023-02-28T04:52:17.605Z,2.43
2023-02-28T04:54:43.998Z,2.13
2023-02-28T04:57:10.372Z,2.02
2023-02-28T04:59:36.783Z,1.90
2023-02-28T05:02:03.224Z,1.93
2023-02-28T05:04:29.666Z,1.94
2023-02-28T05:06:56.057Z,1.98
2023-02-28T05:09:22.439Z,1.89
2023-02-28T05:11:48.853Z,1.83
2023-02-28T05:14:15.459Z,2.01
2023-02-28T05:16:41.924Z,2.15
2023-02-28T05:19:08.393Z,2.38
2023-02-28T05:21:34.822Z,2.17
2023-02-28T05:24:01.220Z,2.19
2023-02-28T05:26:27.571Z,2.19
2023-02-28T05:28:53.927Z,2.03
2023-02-28T05:31:20.310Z,2.00
2023-02-28T05:33:46.714Z,2.13
2023-02-28T05:36:13.096Z,2.27
2023-02-28T05:38:39.505Z,2.38
2023-02-28T05:41:05.893Z,2.40
2023-02-28T05:43:32.349Z,2.42
2023-02-28T05:45:58.802Z,2.44
2023-02-28T05:48:25.258Z,2.33
2023-02-28T05:50:51.725Z,2.33
2023-02-28T05:53:18.099Z,2.39
2023-02-28T05:55:44.479Z,2.47
2023-02-28T05:58:10.883Z,2.30
2023-02-28T06:00:37.258Z,2.25
2023-02-28T06:03:03.684Z,2.71
2023-02-28T06:05:30.236Z,2.63
2023-02-28T06:07:56.616Z,2.49
2023-02-28T06:10:25.949Z,2.56
2023-02-28T06:12:52.352Z,2.50
2023-02-28T06:15:18.743Z,2.45
2023-02-28T06:17:45.126Z,2.35
2023-02-28T06:20:11.504Z,2.49
2023-02-28T06:22:37.870Z,2.50
2023-02-28T06:25:04.258Z,2.35
2023-02-28T06:27:30.623Z,2.37
2023-02-28T06:29:57.013Z,2.10
2023-02-28T06:32:23.470Z,2.08
2023-02-28T06:34:49.911Z,2.02
2023-02-28T06:37:16.322Z,2.02
2023-02-28T06:39:42.683Z,1.97
2023-02-28T06:42:09.052Z,1.99
2023-02-28T06:44:35.421Z,2.10
2023-02-28T06:47:01.819Z,2.12
2023-02-28T06:49:28.192Z,2.34
2023-02-28T06:51:54.608Z,2.30
2023-02-28T06:54:21.065Z,2.36
2023-02-28T06:56:47.505Z,2.40
2023-02-28T06:59:13.889Z,2.30
2023-02-28T07:01:40.290Z,2.36
2023-02-28T07:04:06.697Z,2.61
2023-02-28T07:06:33.101Z,2.41
2023-02-28T07:08:59.468Z,2.52
2023-02-28T07:11:25.819Z,2.77
2023-02-28T07:13:52.238Z,2.76
2023-02-28T07:16:18.616Z,2.64
2023-02-28T07:18:45.025Z,2.65
2023-02-28T07:21:11.493Z,2.48
2023-02-28T07:23:37.865Z,2.82
2023-02-28T07:26:04.230Z,2.54
2023-02-28T07:28:30.624Z,2.35
2023-02-28T07:30:57.023Z,2.53
2023-02-28T07:33:23.441Z,2.52
2023-02-28T07:35:49.893Z,2.28
2023-02-28T07:38:16.285Z,2.19
2023-02-28T07:40:44.169Z,2.19
2023-02-28T07:43:10.565Z,2.19
2023-02-28T07:45:37.032Z,2.00
2023-02-28T07:48:03.489Z,2.14
2023-02-28T07:50:29.888Z,2.20
2023-02-28T07:52:56.272Z,2.09
2023-02-28T07:55:22.631Z,2.01
2023-02-28T07:57:49.090Z,1.78
2023-02-28T08:00:15.539Z,2.04
2023-02-28T08:02:41.956Z,2.38
2023-02-28T08:05:08.372Z,2.49
2023-02-28T08:07:34.813Z,2.65
2023-02-28T08:10:01.223Z,2.52
2023-02-28T08:12:27.608Z,2.52
2023-02-28T08:14:54.037Z,2.42
2023-02-28T08:17:20.434Z,2.60
2023-02-28T08:19:46.809Z,2.79
2023-02-28T08:22:13.176Z,2.74
2023-02-28T08:24:39.584Z,2.76
2023-02-28T08:27:05.970Z,2.90
2023-02-28T08:29:32.377Z,3.24
2023-02-28T08:31:59.044Z,3.17
2023-02-28T08:34:25.563Z,3.45
2023-02-28T08:36:51.940Z,3.68
2023-02-28T08:39:18.313Z,3.74
2023-02-28T08:41:44.729Z,3.83
2023-02-28T08:44:11.129Z,3.62
2023-02-28T08:46:37.525Z,3.59
2023-02-28T08:49:03.972Z,3.71
2023-02-28T08:51:30.644Z,3.80
2023-02-28T08:53:57.197Z,3.84
2023-02-28T08:56:23.581Z,3.95
2023-02-28T08:58:49.941Z,3.87
2023-02-28T09:01:16.375Z,3.89
2023-02-28T09:03:42.933Z,3.57
2023-02-28T09:06:09.327Z,3.76
2023-02-28T09:08:35.772Z,3.71
2023-02-28T09:13:48.503Z,3.53
2023-02-28T09:16:14.915Z,3.55
2023-02-28T09:18:41.339Z,3.70
2023-02-28T09:21:07.701Z,3.83
2023-02-28T09:23:34.082Z,3.78
2023-02-28T09:26:00.445Z,3.93
2023-02-28T09:28:26.825Z,3.84
2023-02-28T09:30:53.293Z,3.96
2023-02-28T09:33:19.653Z,3.99
2023-02-28T09:35:46.023Z,4.11
2023-02-28T09:38:12.402Z,4.38
2023-02-28T09:40:38.794Z,4.35
2023-02-28T09:43:05.171Z,4.47
2023-02-28T09:45:31.567Z,4.53
2023-02-28T09:47:57.953Z,4.58
2023-02-28T09:50:24.345Z,4.58
2023-02-28T09:52:50.764Z,4.59
2023-02-28T09:55:17.165Z,4.69
2023-02-28T09:57:43.539Z,5.04
2023-02-28T10:00:09.934Z,5.12
2023-02-28T10:02:36.324Z,5.29
2023-02-28T10:05:02.732Z,5.44
2023-02-28T10:07:29.147Z,5.61
2023-02-28T10:09:55.545Z,5.61
2023-02-28T10:12:21.930Z,5.47
2023-02-28T10:14:48.295Z,5.41
2023-02-28T10:17:14.671Z,5.55
2023-02-28T10:19:41.087Z,5.39
2023-02-28T10:22:07.481Z,5.33
2023-02-28T10:24:33.866Z,5.25
2023-02-28T10:27:00.316Z,5.14
2023-02-28T10:29:26.674Z,5.12
2023-02-28T10:31:53.132Z,5.06
2023-02-28T10:34:19.605Z,4.88
2023-02-28T10:36:46.017Z,4.81
2023-02-28T10:39:12.477Z,4.79
2023-02-28T10:41:38.840Z,4.98
2023-02-28T10:44:05.234Z,5.10
2023-02-28T10:46:31.928Z,5.22
2023-02-28T10:48:58.521Z,5.10
2023-02-28T10:51:24.881Z,5.04
2023-02-28T10:54:01.797Z,5.07
2023-02-28T10:56:28.576Z,5.23
2023-02-28T10:58:54.978Z,5.19
2023-02-28T11:01:21.394Z,5.17
2023-02-28T11:03:47.790Z,5.34
2023-02-28T11:06:14.211Z,5.44
2023-02-28T11:08:40.701Z,5.55
2023-02-28T11:11:07.078Z,5.70
2023-02-28T11:13:33.443Z,5.62
2023-02-28T11:15:59.927Z,5.61
2023-02-28T11:18:26.373Z,5.72
2023-02-28T11:20:52.759Z,5.63
2023-02-28T11:23:19.159Z,5.79
2023-02-28T11:25:45.532Z,5.98
2023-02-28T11:28:11.996Z,6.06
2023-02-28T11:30:38.393Z,6.13
2023-02-28T11:33:04.834Z,6.14
2023-02-28T11:35:31.219Z,6.28
2023-02-28T11:37:57.612Z,6.29
2023-02-28T11:40:24.010Z,6.47
2023-02-28T11:42:50.422Z,6.65
2023-02-28T11:45:16.812Z,6.80
2023-02-28T11:47:43.194Z,6.60
2023-02-28T11:50:09.621Z,6.51
2023-02-28T11:52:36.125Z,6.60
2023-02-28T11:55:02.498Z,6.54
2023-02-28T11:57:28.884Z,6.44
2023-02-28T11:59:55.265Z,6.62
2023-02-28T12:02:21.646Z,6.89
2023-02-28T12:04:48.070Z,7.21
2023-02-28T12:07:14.461Z,7.49
2023-02-28T12:09:40.831Z,7.86
2023-02-28T12:12:07.210Z,7.93
2023-02-28T12:14:33.608Z,8.15
2023-02-28T12:17:00.003Z,8.32
2023-02-28T12:19:26.436Z,8.74
2023-02-28T12:21:52.795Z,9.00
2023-02-28T12:24:19.177Z,9.06
2023-02-28T12:26:45.554Z,8.92
2023-02-28T12:29:11.935Z,8.89
2023-02-28T12:31:38.363Z,8.65
2023-02-28T12:34:04.773Z,8.81
2023-02-28T12:36:31.175Z,8.93
2023-02-28T12:38:57.568Z,8.86
2023-02-28T12:41:24.011Z,8.80
2023-02-28T12:43:50.397Z,8.84
2023-02-28T12:46:16.910Z,8.75
2023-02-28T12:48:43.353Z,8.66
2023-02-28T12:51:09.758Z,8.43
2023-02-28T12:53:36.184Z,8.35
2023-02-28T12:56:02.561Z,8.30
2023-02-28T12:58:28.963Z,8.17
2023-02-28T13:00:55.407Z,8.49
2023-02-28T13:03:21.833Z,8.96
2023-02-28T13:05:48.211Z,9.19
2023-02-28T13:08:14.594Z,8.97
2023-02-28T13:10:41.003Z,9.17
2023-02-28T13:13:07.387Z,9.31
2023-02-28T13:15:33.776Z,9.15
2023-02-28T13:18:00.184Z,8.84
2023-02-28T13:20:26.589Z,9.35
2023-02-28T13:22:53.163Z,9.72
2023-02-28T13:25:19.554Z,9.47
2023-02-28T13:27:45.914Z,8.99
2023-02-28T13:30:12.307Z,9.02
2023-02-28T13:32:38.680Z,8.91
2023-02-28T13:35:05.075Z,8.75
2023-02-28T13:37:31.559Z,8.58
2023-02-28T13:39:58.006Z,8.58
2023-02-28T13:42:24.415Z,8.65
2023-02-28T13:44:50.788Z,8.81
2023-02-28T13:47:17.178Z,8.98
2023-02-28T13:49:43.575Z,9.26
2023-02-28T13:52:09.974Z,9.43
2023-02-28T13:54:36.361Z,9.62
2023-02-28T13:57:03.647Z,9.36
2023-02-28T13:59:30.118Z,9.23
2023-02-28T14:01:57.705Z,9.33
2023-02-28T14:04:25.630Z,9.27
2023-02-28T14:06:52.270Z,9.16
2023-02-28T14:09:18.671Z,8.95
2023-02-28T14:11:45.062Z,8.62
2023-02-28T14:14:11.475Z,8.64
2023-02-28T14:16:37.870Z,8.68
2023-02-28T14:19:04.333Z,8.87
2023-02-28T14:21:30.741Z,8.82
2023-02-28T14:23:57.103Z,8.92
2023-02-28T14:26:23.461Z,9.17
2023-02-28T14:28:49.848Z,9.70
2023-02-28T14:31:16.245Z,10.52
2023-02-28T14:33:42.687Z,10.95
2023-02-28T14:36:09.092Z,11.20
2023-02-28T14:38:35.522Z,11.26
2023-02-28T14:41:01.906Z,11.07
2023-02-28T14:43:28.294Z,11.09
2023-02-28T14:45:54.692Z,11.24
2023-02-28T14:48:21.119Z,11.35
2023-02-28T14:50:47.509Z,11.21
2023-02-28T14:53:13.939Z,10.33
2023-02-28T14:55:40.330Z,9.98
2023-02-28T14:58:06.717Z,9.48
2023-02-28T15:00:33.136Z,9.27
2023-02-28T15:02:59.535Z,9.97
2023-02-28T15:05:25.911Z,10.16
2023-02-28T15:07:52.296Z,10.79
2023-02-28T15:10:18.686Z,10.96
2023-02-28T15:12:45.072Z,10.85
2023-02-28T15:15:11.465Z,10.85
2023-02-28T15:17:37.865Z,10.57
2023-02-28T15:20:04.342Z,11.08
2023-02-28T15:22:30.738Z,11.39
2023-02-28T15:24:57.130Z,12.14
2023-02-28T15:27:23.528Z,11.96
2023-02-28T15:29:49.926Z,11.86
2023-02-28T15:32:16.345Z,11.87
2023-02-28T15:34:44.210Z,11.16
2023-02-28T15:37:10.906Z,10.84
2023-02-28T15:39:37.310Z,10.25
2023-02-28T15:42:03.704Z,10.16
2023-02-28T15:44:30.127Z,9.43
2023-02-28T15:46:56.579Z,8.97
2023-02-28T15:49:22.978Z,8.18
2023-02-28T15:51:49.338Z,8.02
2023-02-28T15:54:15.724Z,8.21
2023-02-28T15:56:42.112Z,7.86
2023-02-28T15:59:08.514Z,7.60
2023-02-28T16:01:34.948Z,7.32
2023-02-28T16:04:01.395Z,7.48
2023-02-28T16:06:27.782Z,7.14
2023-02-28T16:08:54.173Z,7.05
2023-02-28T16:11:20.557Z,6.80
2023-02-28T16:13:47.000Z,6.64
2023-02-28T16:16:13.407Z,6.38
2023-02-28T16:18:39.786Z,6.32
2023-02-28T16:21:06.163Z,5.95
2023-02-28T16:23:32.521Z,5.91
2023-02-28T16:25:59.230Z,5.97
2023-02-28T16:28:25.601Z,5.84
2023-02-28T16:30:52.065Z,5.82
2023-02-28T16:33:18.497Z,5.78
2023-02-28T16:35:44.897Z,5.61
2023-02-28T16:38:11.265Z,5.59
2023-02-28T16:40:37.641Z,5.13
2023-02-28T16:43:04.027Z,5.03
2023-02-28T16:45:30.389Z,5.22
2023-02-28T16:47:57.007Z,5.20
2023-02-28T16:50:25.734Z,5.05
2023-02-28T16:52:52.153Z,4.73
2023-02-28T16:55:18.540Z,4.60
2023-02-28T16:57:44.902Z,4.43
2023-02-28T17:00:11.346Z,4.41
2023-02-28T17:02:39.402Z,4.25
2023-02-28T17:05:06.879Z,4.28
2023-02-28T17:07:33.349Z,4.32
2023-02-28T17:09:59.742Z,4.44
2023-02-28T17:12:26.137Z,4.32
2023-02-28T17:14:52.550Z,4.43
2023-02-28T17:17:18.966Z,4.43
2023-02-28T17:19:45.376Z,4.34
2023-02-28T17:22:14.090Z,4.47
2023-02-28T17:24:40.513Z,4.37
2023-02-28T17:27:06.928Z,4.47
2023-02-28T17:29:33.309Z,4.27
2023-02-28T17:32:03.160Z,3.90
2023-02-28T17:34:35.256Z,3.61
2023-02-28T17:37:02.843Z,3.66
2023-02-28T17:39:30.226Z,3.53
2023-02-28T17:41:56.595Z,3.49
2023-02-28T17:44:22.992Z,3.61
2023-02-28T17:46:49.433Z,3.58
2023-02-28T17:49:15.830Z,3.31
2023-02-28T17:51:42.212Z,3.17
2023-02-28T17:54:08.592Z,3.10
2023-02-28T17:56:34.955Z,3.70
2023-02-28T17:59:02.485Z,3.43
2023-02-28T18:01:28.863Z,3.22
2023-02-28T18:03:55.259Z,3.21
2023-02-28T18:06:21.640Z,2.96
2023-02-28T18:08:48.013Z,2.97
2023-02-28T18:11:14.382Z,2.95
2023-02-28T18:13:40.734Z,2.71
2023-02-28T18:16:07.194Z,2.65
2023-02-28T18:18:33.606Z,2.59
2023-02-28T18:20:59.986Z,2.58
2023-02-28T18:23:26.352Z,2.56
2023-02-28T18:25:52.742Z,2.63
2023-02-28T18:28:19.112Z,2.60
2023-02-28T18:30:45.477Z,2.45
2023-02-28T18:33:11.855Z,2.41
2023-02-28T18:35:38.227Z,2.47
2023-02-28T18:38:04.664Z,2.40
2023-02-28T18:40:31.030Z,2.34
2023-02-28T18:42:57.412Z,2.22
2023-02-28T18:45:23.807Z,2.33
2023-02-28T18:47:50.176Z,2.31
2023-02-28T18:50:16.572Z,2.32
2023-02-28T18:52:42.944Z,2.23
2023-02-28T18:55:09.310Z,2.09
2023-02-28T18:57:35.672Z,2.23
2023-02-28T19:00:02.056Z,2.01
2023-02-28T19:02:28.436Z,1.88
2023-02-28T19:04:54.817Z,2.00
2023-02-28T19:07:21.221Z,2.11
2023-02-28T19:09:47.604Z,2.08
2023-02-28T19:12:14.046Z,2.10
2023-02-28T19:14:40.420Z,2.00
2023-02-28T19:17:06.834Z,1.87
2023-02-28T19:19:36.379Z,1.92
2023-02-28T19:22:02.789Z,1.88
2023-02-28T19:24:29.178Z,2.00
2023-02-28T19:26:55.575Z,1.86
2023-02-28T19:29:21.967Z,1.80
2023-02-28T19:31:48.454Z,1.90
2023-02-28T19:34:14.976Z,1.78
2023-02-28T19:36:41.330Z,1.81
2023-02-28T19:39:07.770Z,1.78
2023-02-28T19:41:34.710Z,1.96
2023-02-28T19:44:01.100Z,2.03
2023-02-28T19:46:27.463Z,2.05
2023-02-28T19:48:53.875Z,2.11
2023-02-28T19:51:20.332Z,2.15
2023-02-28T19:53:46.728Z,1.99
2023-02-28T19:56:13.112Z,1.92
2023-02-28T19:58:39.513Z,2.05
2023-02-28T20:01:05.988Z,1.99
2023-02-28T20:03:32.404Z,2.01
2023-02-28T20:05:58.819Z,2.06
2023-02-28T20:08:25.187Z,2.01
2023-02-28T20:10:51.586Z,2.04
2023-02-28T20:13:18.673Z,2.16
2023-02-28T20:15:45.100Z,2.21
2023-02-28T20:18:11.487Z,2.32
2023-02-28T20:20:37.927Z,2.30
2023-02-28T20:23:04.339Z,2.34
2023-02-28T20:25:30.771Z,2.28
2023-02-28T20:27:57.153Z,2.13
2023-02-28T20:30:23.542Z,2.16
2023-02-28T20:32:50.024Z,2.14
2023-02-28T20:35:16.430Z,2.24
2023-02-28T20:37:42.835Z,2.21
2023-02-28T20:40:09.242Z,2.24
2023-02-28T20:42:35.609Z,2.25
2023-02-28T20:45:01.999Z,2.12
2023-02-28T20:47:28.397Z,2.00
2023-02-28T20:49:54.783Z,2.09
2023-02-28T20:52:21.147Z,2.07
2023-02-28T20:54:47.617Z,2.17
2023-02-28T20:57:14.023Z,2.28
2023-02-28T20:59:40.393Z,2.32
2023-02-28T21:02:06.814Z,2.28
2023-02-28T21:04:33.187Z,2.13
2023-02-28T21:06:59.580Z,2.23
2023-02-28T21:09:25.955Z,2.18
2023-02-28T21:11:52.309Z,2.18
2023-02-28T21:14:18.711Z,2.00
2023-02-28T21:16:45.096Z,2.02
2023-02-28T21:19:11.482Z,2.07
2023-02-28T21:21:37.867Z,2.19
2023-02-28T21:24:04.243Z,2.13
2023-02-28T21:26:30.862Z,1.95
2023-02-28T21:28:57.454Z,2.10
2023-02-28T21:31:23.872Z,2.20
2023-02-28T21:33:50.289Z,2.30
2023-02-28T21:36:16.660Z,2.37
2023-02-28T21:38:43.065Z,2.30
2023-02-28T21:41:09.434Z,2.40
2023-02-28T21:43:35.848Z,2.22
2023-02-28T21:46:02.217Z,2.40
2023-02-28T21:48:28.603Z,2.25
2023-02-28T21:50:54.993Z,2.20
2023-02-28T21:53:21.386Z,2.23
2023-02-28T21:55:47.773Z,2.23
2023-02-28T21:58:14.184Z,2.22
2023-02-28T22:00:40.658Z,2.32
2023-02-28T22:03:07.080Z,2.28
2023-02-28T22:05:33.507Z,2.35
2023-02-28T22:07:59.875Z,2.43
2023-02-28T22:10:26.237Z,2.32
2023-02-28T22:12:52.654Z,2.37
2023-02-28T22:15:19.008Z,2.21
2023-02-28T22:17:45.435Z,2.29
2023-02-28T22:20:11.814Z,2.29
2023-02-28T22:22:38.191Z,2.19
2023-02-28T22:25:04.569Z,2.25
2023-02-28T22:27:30.930Z,2.18
2023-02-28T22:29:57.291Z,2.24
2023-02-28T22:32:23.727Z,2.27
2023-02-28T22:34:50.170Z,2.18
2023-02-28T22:37:16.569Z,2.18
2023-02-28T22:39:42.993Z,2.21
2023-02-28T22:42:09.364Z,2.37
2023-02-28T22:44:35.775Z,2.29
2023-02-28T22:47:02.190Z,2.46
2023-02-28T22:49:28.571Z,2.51
2023-02-28T22:51:54.955Z,2.41
2023-02-28T22:54:21.390Z,2.42
2023-02-28T22:56:47.751Z,2.32
2023-02-28T22:59:14.139Z,2.33
2023-02-28T23:01:40.550Z,2.32
2023-02-28T23:04:06.966Z,2.33
2023-02-28T23:06:33.705Z,2.29
2023-02-28T23:09:00.292Z,2.20
2023-02-28T23:11:26.667Z,2.19
2023-02-28T23:13:53.046Z,2.21
2023-02-28T23:16:19.462Z,2.14
2023-02-28T23:18:45.851Z,2.27
2023-02-28T23:21:12.282Z,2.19
2023-02-28T23:23:38.716Z,2.24
2023-02-28T23:26:05.101Z,2.29
2023-02-28T23:28:31.521Z,2.24
2023-02-28T23:30:57.918Z,2.01
2023-02-28T23:33:24.304Z,2.03
2023-02-28T23:35:50.705Z,2.01
2023-02-28T23:38:17.072Z,2.10
2023-02-28T23:40:43.451Z,2.15
2023-02-28T23:43:09.829Z,2.04
2023-02-28T23:45:36.350Z,2.10
2023-02-28T23:48:02.761Z,2.14
2023-02-28T23:50:29.169Z,2.18
2023-02-28T23:52:55.584Z,2.23
2023-02-28T23:55:21.951Z,2.31
2023-02-28T23:57:48.356Z,2.45
